sensor_id;sensor_type;location;lat;lon;timestamp;P1;durP1;ratioP1;P2;durP2;ratioP2
12474;SDS011;6302;42.624;23.334;2023-04-25T00:00:21;4.43;;;4.13;;
12474;SDS011;6302;42.624;23.334;2023-04-25T00:02:48;4.40;;;4.10;;
12474;SDS011;6302;42.624;23.334;2023-04-25T00:05:15;4.70;;;4.30;;
12474;SDS011;6302;42.624;23.334;2023-04-25T00:07:42;5.43;;;4.93;;
12474;SDS011;6302;42.624;23.334;2023-04-25T00:10:09;4.93;;;4.57;;
12474;SDS011;6302;42.624;23.334;2023-04-25T00:12:38;5.70;;;5.13;;
12474;SDS011;6302;42.624;23.334;2023-04-25T00:15:05;5.83;;;5.33;;
12474;SDS011;6302;42.624;23.334;2023-04-25T00:17:33;5.40;;;5.00;;
12474;SDS011;6302;42.624;23.334;2023-04-25T00:20:01;4.50;;;3.80;;
12474;SDS011;6302;42.624;23.334;2023-04-25T00:22:30;3.87;;;3.57;;
12474;SDS011;6302;42.624;23.334;2023-04-25T00:24:56;2.60;;;2.33;;
12474;SDS011;6302;42.624;23.334;2023-04-25T00:27:25;1.97;;;1.87;;
12474;SDS011;6302;42.624;23.334;2023-04-25T00:29:53;1.57;;;1.47;;
12474;SDS011;6302;42.624;23.334;2023-04-25T00:32:20;1.97;;;1.57;;
12474;SDS011;6302;42.624;23.334;2023-04-25T00:34:47;1.63;;;1.53;;
12474;SDS011;6302;42.624;23.334;2023-04-25T00:37:13;2.40;;;2.07;;
12474;SDS011;6302;42.624;23.334;2023-04-25T00:39:40;2.27;;;2.17;;
12474;SDS011;6302;42.624;23.334;2023-04-25T00:42:07;5.50;;;5.00;;
12474;SDS011;6302;42.624;23.334;2023-04-25T00:44:34;5.70;;;5.20;;
12474;SDS011;6302;42.624;23.334;2023-04-25T00:47:03;6.00;;;5.43;;
12474;SDS011;6302;42.624;23.334;2023-04-25T00:49:30;7.43;;;6.73;;
12474;SDS011;6302;42.624;23.334;2023-04-25T00:51:57;9.13;;;7.40;;
12474;SDS011;6302;42.624;23.334;2023-04-25T00:54:24;7.53;;;6.80;;
12474;SDS011;6302;42.624;23.334;2023-04-25T00:56:51;7.30;;;6.60;;
12474;SDS011;6302;42.624;23.334;2023-04-25T00:59:19;7.80;;;7.00;;
12474;SDS011;6302;42.624;23.334;2023-04-25T01:01:46;8.13;;;6.63;;
12474;SDS011;6302;42.624;23.334;2023-04-25T01:04:14;6.10;;;5.50;;
12474;SDS011;6302;42.624;23.334;2023-04-25T01:06:41;5.27;;;4.73;;
12474;SDS011;6302;42.624;23.334;2023-04-25T01:09:08;5.40;;;4.90;;
12474;SDS011;6302;42.624;23.334;2023-04-25T01:11:35;5.10;;;4.60;;
12474;SDS011;6302;42.624;23.334;2023-04-25T01:14:02;5.57;;;4.23;;
12474;SDS011;6302;42.624;23.334;2023-04-25T01:16:29;4.83;;;3.70;;
12474;SDS011;6302;42.624;23.334;2023-04-25T01:18:56;4.03;;;3.73;;
12474;SDS011;6302;42.624;23.334;2023-04-25T01:21:25;3.40;;;3.10;;
12474;SDS011;6302;42.624;23.334;2023-04-25T01:23:54;3.77;;;3.47;;
12474;SDS011;6302;42.624;23.334;2023-04-25T01:26:22;5.47;;;3.70;;
12474;SDS011;6302;42.624;23.334;2023-04-25T01:28:49;4.37;;;3.97;;
12474;SDS011;6302;42.624;23.334;2023-04-25T01:31:16;4.23;;;3.83;;
12474;SDS011;6302;42.624;23.334;2023-04-25T01:33:44;4.50;;;4.10;;
12474;SDS011;6302;42.624;23.334;2023-04-25T01:36:11;5.87;;;4.47;;
12474;SDS011;6302;42.624;23.334;2023-04-25T01:38:40;6.27;;;5.67;;
12474;SDS011;6302;42.624;23.334;2023-04-25T01:41:09;7.17;;;5.93;;
12474;SDS011;6302;42.624;23.334;2023-04-25T01:43:36;8.07;;;7.23;;
12474;SDS011;6302;42.624;23.334;2023-04-25T01:46:03;10.37;;;8.23;;
12474;SDS011;6302;42.624;23.334;2023-04-25T01:48:30;9.07;;;8.03;;
12474;SDS011;6302;42.624;23.334;2023-04-25T01:50:57;10.20;;;8.30;;
12474;SDS011;6302;42.624;23.334;2023-04-25T01:53:24;9.30;;;8.40;;
12474;SDS011;6302;42.624;23.334;2023-04-25T01:55:53;10.17;;;9.07;;
12474;SDS011;6302;42.624;23.334;2023-04-25T01:58:19;10.30;;;8.50;;
12474;SDS011;6302;42.624;23.334;2023-04-25T02:00:46;10.80;;;8.97;;
12474;SDS011;6302;42.624;23.334;2023-04-25T02:03:13;11.33;;;10.13;;
12474;SDS011;6302;42.624;23.334;2023-04-25T02:05:40;10.93;;;9.17;;
12474;SDS011;6302;42.624;23.334;2023-04-25T02:08:07;12.00;;;9.70;;
12474;SDS011;6302;42.624;23.334;2023-04-25T02:10:35;12.63;;;9.47;;
12474;SDS011;6302;42.624;23.334;2023-04-25T02:13:03;12.70;;;10.10;;
12474;SDS011;6302;42.624;23.334;2023-04-25T02:15:30;12.87;;;10.27;;
12474;SDS011;6302;42.624;23.334;2023-04-25T02:17:57;11.93;;;10.03;;
12474;SDS011;6302;42.624;23.334;2023-04-25T02:20:25;12.30;;;10.03;;
12474;SDS011;6302;42.624;23.334;2023-04-25T02:22:52;12.93;;;10.57;;
12474;SDS011;6302;42.624;23.334;2023-04-25T02:25:19;11.47;;;10.27;;
12474;SDS011;6302;42.624;23.334;2023-04-25T02:27:47;12.73;;;9.97;;
12474;SDS011;6302;42.624;23.334;2023-04-25T02:30:15;11.17;;;9.90;;
12474;SDS011;6302;42.624;23.334;2023-04-25T02:32:42;12.10;;;10.60;;
12474;SDS011;6302;42.624;23.334;2023-04-25T02:35:09;10.63;;;9.30;;
12474;SDS011;6302;42.624;23.334;2023-04-25T02:37:37;11.30;;;10.03;;
12474;SDS011;6302;42.624;23.334;2023-04-25T02:40:05;14.37;;;11.03;;
12474;SDS011;6302;42.624;23.334;2023-04-25T02:42:33;12.00;;;10.57;;
12474;SDS011;6302;42.624;23.334;2023-04-25T02:45:00;11.00;;;9.73;;
12474;SDS011;6302;42.624;23.334;2023-04-25T02:47:29;11.10;;;9.90;;
12474;SDS011;6302;42.624;23.334;2023-04-25T02:49:56;11.47;;;10.10;;
12474;SDS011;6302;42.624;23.334;2023-04-25T02:52:23;10.77;;;9.53;;
12474;SDS011;6302;42.624;23.334;2023-04-25T02:54:51;13.53;;;9.67;;
12474;SDS011;6302;42.624;23.334;2023-04-25T02:57:18;10.07;;;9.07;;
12474;SDS011;6302;42.624;23.334;2023-04-25T02:59:45;9.27;;;8.37;;
12474;SDS011;6302;42.624;23.334;2023-04-25T03:02:11;9.07;;;8.17;;
12474;SDS011;6302;42.624;23.334;2023-04-25T03:04:39;8.23;;;7.43;;
12474;SDS011;6302;42.624;23.334;2023-04-25T03:07:06;7.70;;;6.90;;
12474;SDS011;6302;42.624;23.334;2023-04-25T03:09:33;11.03;;;7.87;;
12474;SDS011;6302;42.624;23.334;2023-04-25T03:12:00;10.20;;;8.53;;
12474;SDS011;6302;42.624;23.334;2023-04-25T03:14:27;11.27;;;8.67;;
12474;SDS011;6302;42.624;23.334;2023-04-25T03:16:53;11.17;;;8.97;;
12474;SDS011;6302;42.624;23.334;2023-04-25T03:19:20;12.07;;;10.07;;
12474;SDS011;6302;42.624;23.334;2023-04-25T03:21:48;13.40;;;10.93;;
12474;SDS011;6302;42.624;23.334;2023-04-25T03:24:15;12.00;;;10.80;;
12474;SDS011;6302;42.624;23.334;2023-04-25T03:26:42;13.03;;;10.80;;
12474;SDS011;6302;42.624;23.334;2023-04-25T03:29:09;12.23;;;10.23;;
12474;SDS011;6302;42.624;23.334;2023-04-25T03:31:36;11.43;;;10.20;;
12474;SDS011;6302;42.624;23.334;2023-04-25T03:34:03;11.67;;;10.13;;
12474;SDS011;6302;42.624;23.334;2023-04-25T03:36:29;13.10;;;10.60;;
12474;SDS011;6302;42.624;23.334;2023-04-25T03:38:59;13.73;;;10.87;;
12474;SDS011;6302;42.624;23.334;2023-04-25T03:41:25;12.13;;;10.20;;
12474;SDS011;6302;42.624;23.334;2023-04-25T03:43:52;11.97;;;10.07;;
12474;SDS011;6302;42.624;23.334;2023-04-25T03:46:19;12.30;;;10.93;;
12474;SDS011;6302;42.624;23.334;2023-04-25T03:48:46;12.63;;;10.93;;
12474;SDS011;6302;42.624;23.334;2023-04-25T03:51:13;13.03;;;10.57;;
12474;SDS011;6302;42.624;23.334;2023-04-25T03:53:40;11.77;;;9.27;;
12474;SDS011;6302;42.624;23.334;2023-04-25T03:56:08;11.47;;;9.50;;
12474;SDS011;6302;42.624;23.334;2023-04-25T03:58:35;10.30;;;8.17;;
12474;SDS011;6302;42.624;23.334;2023-04-25T04:01:01;10.63;;;9.07;;
12474;SDS011;6302;42.624;23.334;2023-04-25T04:03:32;8.07;;;6.87;;
12474;SDS011;6302;42.624;23.334;2023-04-25T04:06:00;5.80;;;5.30;;
12474;SDS011;6302;42.624;23.334;2023-04-25T04:08:27;5.77;;;5.27;;
12474;SDS011;6302;42.624;23.334;2023-04-25T04:10:54;5.60;;;5.10;;
12474;SDS011;6302;42.624;23.334;2023-04-25T04:13:23;4.30;;;4.00;;
12474;SDS011;6302;42.624;23.334;2023-04-25T04:15:49;8.33;;;7.53;;
12474;SDS011;6302;42.624;23.334;2023-04-25T04:18:16;8.97;;;7.80;;
12474;SDS011;6302;42.624;23.334;2023-04-25T04:20:43;7.53;;;6.83;;
12474;SDS011;6302;42.624;23.334;2023-04-25T04:23:10;8.77;;;7.83;;
12474;SDS011;6302;42.624;23.334;2023-04-25T04:25:36;8.90;;;8.00;;
12474;SDS011;6302;42.624;23.334;2023-04-25T04:28:04;9.07;;;7.53;;
12474;SDS011;6302;42.624;23.334;2023-04-25T04:30:33;8.00;;;7.17;;
12474;SDS011;6302;42.624;23.334;2023-04-25T04:33:02;8.67;;;7.80;;
12474;SDS011;6302;42.624;23.334;2023-04-25T04:35:29;9.17;;;8.27;;
12474;SDS011;6302;42.624;23.334;2023-04-25T04:37:56;11.00;;;9.83;;
12474;SDS011;6302;42.624;23.334;2023-04-25T04:40:23;11.17;;;9.30;;
12474;SDS011;6302;42.624;23.334;2023-04-25T04:42:50;14.83;;;9.47;;
12474;SDS011;6302;42.624;23.334;2023-04-25T04:45:18;11.27;;;10.03;;
12474;SDS011;6302;42.624;23.334;2023-04-25T04:47:47;11.27;;;9.87;;
12474;SDS011;6302;42.624;23.334;2023-04-25T04:50:14;13.33;;;10.90;;
12474;SDS011;6302;42.624;23.334;2023-04-25T04:52:41;13.67;;;11.50;;
12474;SDS011;6302;42.624;23.334;2023-04-25T04:55:08;12.60;;;10.83;;
12474;SDS011;6302;42.624;23.334;2023-04-25T04:57:35;18.07;;;13.03;;
12474;SDS011;6302;42.624;23.334;2023-04-25T05:00:04;16.30;;;14.00;;
12474;SDS011;6302;42.624;23.334;2023-04-25T05:02:33;16.37;;;13.40;;
12474;SDS011;6302;42.624;23.334;2023-04-25T05:05:01;15.20;;;13.60;;
12474;SDS011;6302;42.624;23.334;2023-04-25T05:07:28;15.70;;;13.03;;
12474;SDS011;6302;42.624;23.334;2023-04-25T05:09:54;14.60;;;12.40;;
12474;SDS011;6302;42.624;23.334;2023-04-25T05:12:21;15.67;;;12.47;;
12474;SDS011;6302;42.624;23.334;2023-04-25T05:14:48;18.20;;;13.87;;
12474;SDS011;6302;42.624;23.334;2023-04-25T05:17:15;16.67;;;13.77;;
12474;SDS011;6302;42.624;23.334;2023-04-25T05:19:41;15.70;;;12.97;;
12474;SDS011;6302;42.624;23.334;2023-04-25T05:22:09;17.03;;;13.07;;
12474;SDS011;6302;42.624;23.334;2023-04-25T05:24:38;14.67;;;12.03;;
12474;SDS011;6302;42.624;23.334;2023-04-25T05:27:05;13.70;;;11.97;;
12474;SDS011;6302;42.624;23.334;2023-04-25T05:29:32;12.87;;;11.33;;
12474;SDS011;6302;42.624;23.334;2023-04-25T05:32:00;11.90;;;10.57;;
12474;SDS011;6302;42.624;23.334;2023-04-25T05:34:27;10.87;;;8.93;;
12474;SDS011;6302;42.624;23.334;2023-04-25T05:36:53;11.80;;;8.73;;
12474;SDS011;6302;42.624;23.334;2023-04-25T05:39:22;11.83;;;10.10;;
12474;SDS011;6302;42.624;23.334;2023-04-25T05:41:48;9.93;;;8.83;;
12474;SDS011;6302;42.624;23.334;2023-04-25T05:44:15;10.07;;;9.00;;
12474;SDS011;6302;42.624;23.334;2023-04-25T05:46:42;9.03;;;8.13;;
12474;SDS011;6302;42.624;23.334;2023-04-25T05:49:09;9.47;;;8.47;;
12474;SDS011;6302;42.624;23.334;2023-04-25T05:51:36;9.03;;;7.63;;
12474;SDS011;6302;42.624;23.334;2023-04-25T05:54:03;9.83;;;8.83;;
12474;SDS011;6302;42.624;23.334;2023-04-25T05:56:31;10.97;;;8.57;;
12474;SDS011;6302;42.624;23.334;2023-04-25T05:58:58;9.37;;;8.00;;
12474;SDS011;6302;42.624;23.334;2023-04-25T06:01:24;10.17;;;9.00;;
12474;SDS011;6302;42.624;23.334;2023-04-25T06:03:51;9.13;;;8.20;;
12474;SDS011;6302;42.624;23.334;2023-04-25T06:06:18;10.90;;;9.53;;
12474;SDS011;6302;42.624;23.334;2023-04-25T06:08:45;12.33;;;10.83;;
12474;SDS011;6302;42.624;23.334;2023-04-25T06:11:12;12.57;;;10.70;;
12474;SDS011;6302;42.624;23.334;2023-04-25T06:13:40;13.73;;;12.33;;
12474;SDS011;6302;42.624;23.334;2023-04-25T06:16:07;16.17;;;14.23;;
12474;SDS011;6302;42.624;23.334;2023-04-25T06:18:34;16.43;;;14.73;;
12474;SDS011;6302;42.624;23.334;2023-04-25T06:21:00;16.37;;;14.53;;
12474;SDS011;6302;42.624;23.334;2023-04-25T06:23:27;17.60;;;15.17;;
12474;SDS011;6302;42.624;23.334;2023-04-25T06:25:54;17.33;;;15.00;;
12474;SDS011;6302;42.624;23.334;2023-04-25T06:28:21;19.70;;;15.93;;
12474;SDS011;6302;42.624;23.334;2023-04-25T06:30:50;18.73;;;15.97;;
12474;SDS011;6302;42.624;23.334;2023-04-25T06:33:17;19.87;;;17.70;;
12474;SDS011;6302;42.624;23.334;2023-04-25T06:35:45;16.07;;;14.23;;
12474;SDS011;6302;42.624;23.334;2023-04-25T06:38:11;18.33;;;14.53;;
12474;SDS011;6302;42.624;23.334;2023-04-25T06:40:38;11.60;;;10.40;;
12474;SDS011;6302;42.624;23.334;2023-04-25T06:43:05;10.77;;;9.67;;
12474;SDS011;6302;42.624;23.334;2023-04-25T06:45:32;10.47;;;9.53;;
12474;SDS011;6302;42.624;23.334;2023-04-25T06:48:00;8.77;;;7.97;;
12474;SDS011;6302;42.624;23.334;2023-04-25T06:50:27;7.00;;;6.40;;
12474;SDS011;6302;42.624;23.334;2023-04-25T06:52:54;7.20;;;6.50;;
12474;SDS011;6302;42.624;23.334;2023-04-25T06:55:20;8.80;;;7.77;;
12474;SDS011;6302;42.624;23.334;2023-04-25T06:57:47;9.20;;;7.70;;
12474;SDS011;6302;42.624;23.334;2023-04-25T07:00:14;6.83;;;6.23;;
12474;SDS011;6302;42.624;23.334;2023-04-25T07:02:42;7.50;;;6.87;;
12474;SDS011;6302;42.624;23.334;2023-04-25T07:05:10;8.40;;;7.37;;
12474;SDS011;6302;42.624;23.334;2023-04-25T07:07:37;7.67;;;6.83;;
12474;SDS011;6302;42.624;23.334;2023-04-25T07:10:04;8.57;;;7.67;;
12474;SDS011;6302;42.624;23.334;2023-04-25T07:12:31;9.37;;;6.90;;
12474;SDS011;6302;42.624;23.334;2023-04-25T07:14:58;10.37;;;7.93;;
12474;SDS011;6302;42.624;23.334;2023-04-25T07:17:30;8.77;;;7.90;;
12474;SDS011;6302;42.624;23.334;2023-04-25T07:19:58;9.80;;;8.10;;
12474;SDS011;6302;42.624;23.334;2023-04-25T07:22:26;8.53;;;7.73;;
12474;SDS011;6302;42.624;23.334;2023-04-25T07:24:53;8.93;;;8.00;;
12474;SDS011;6302;42.624;23.334;2023-04-25T07:27:19;9.40;;;7.40;;
12474;SDS011;6302;42.624;23.334;2023-04-25T07:29:46;8.20;;;7.40;;
12474;SDS011;6302;42.624;23.334;2023-04-25T07:32:13;9.10;;;8.20;;
12474;SDS011;6302;42.624;23.334;2023-04-25T07:34:40;9.30;;;8.27;;
12474;SDS011;6302;42.624;23.334;2023-04-25T07:37:07;10.10;;;8.57;;
12474;SDS011;6302;42.624;23.334;2023-04-25T07:39:35;9.93;;;7.93;;
12474;SDS011;6302;42.624;23.334;2023-04-25T07:42:02;11.67;;;8.33;;
12474;SDS011;6302;42.624;23.334;2023-04-25T07:44:31;8.70;;;7.57;;
12474;SDS011;6302;42.624;23.334;2023-04-25T07:47:03;9.47;;;7.30;;
12474;SDS011;6302;42.624;23.334;2023-04-25T07:49:32;9.50;;;7.57;;
12474;SDS011;6302;42.624;23.334;2023-04-25T07:51:59;8.80;;;7.70;;
12474;SDS011;6302;42.624;23.334;2023-04-25T07:54:26;9.60;;;7.87;;
12474;SDS011;6302;42.624;23.334;2023-04-25T07:56:54;11.37;;;7.67;;
12474;SDS011;6302;42.624;23.334;2023-04-25T07:59:21;8.43;;;7.63;;
12474;SDS011;6302;42.624;23.334;2023-04-25T08:01:48;8.00;;;7.20;;
12474;SDS011;6302;42.624;23.334;2023-04-25T08:04:15;8.93;;;8.03;;
12474;SDS011;6302;42.624;23.334;2023-04-25T08:06:42;9.47;;;7.27;;
12474;SDS011;6302;42.624;23.334;2023-04-25T08:09:08;11.27;;;7.63;;
12474;SDS011;6302;42.624;23.334;2023-04-25T08:11:36;8.33;;;7.40;;
12474;SDS011;6302;42.624;23.334;2023-04-25T08:14:04;12.87;;;8.83;;
12474;SDS011;6302;42.624;23.334;2023-04-25T08:16:31;10.80;;;7.07;;
12474;SDS011;6302;42.624;23.334;2023-04-25T08:18:58;8.37;;;6.37;;
12474;SDS011;6302;42.624;23.334;2023-04-25T08:21:25;7.50;;;6.33;;
12474;SDS011;6302;42.624;23.334;2023-04-25T08:23:53;6.90;;;6.00;;
12474;SDS011;6302;42.624;23.334;2023-04-25T08:26:19;7.00;;;6.30;;
12474;SDS011;6302;42.624;23.334;2023-04-25T08:28:46;7.37;;;5.07;;
12474;SDS011;6302;42.624;23.334;2023-04-25T08:31:14;9.03;;;5.30;;
12474;SDS011;6302;42.624;23.334;2023-04-25T08:33:42;9.23;;;5.50;;
12474;SDS011;6302;42.624;23.334;2023-04-25T08:36:09;7.30;;;4.93;;
12474;SDS011;6302;42.624;23.334;2023-04-25T08:38:36;4.40;;;4.00;;
12474;SDS011;6302;42.624;23.334;2023-04-25T08:41:03;5.67;;;3.47;;
12474;SDS011;6302;42.624;23.334;2023-04-25T08:43:32;3.13;;;2.93;;
12474;SDS011;6302;42.624;23.334;2023-04-25T08:46:01;5.07;;;3.00;;
12474;SDS011;6302;42.624;23.334;2023-04-25T08:48:31;3.27;;;2.97;;
12474;SDS011;6302;42.624;23.334;2023-04-25T08:51:01;3.60;;;3.30;;
12474;SDS011;6302;42.624;23.334;2023-04-25T08:53:29;4.90;;;4.23;;
12474;SDS011;6302;42.624;23.334;2023-04-25T08:55:58;4.17;;;3.17;;
12474;SDS011;6302;42.624;23.334;2023-04-25T08:58:27;4.93;;;3.00;;
12474;SDS011;6302;42.624;23.334;2023-04-25T09:00:54;3.60;;;3.13;;
12474;SDS011;6302;42.624;23.334;2023-04-25T09:03:21;4.37;;;3.33;;
12474;SDS011;6302;42.624;23.334;2023-04-25T09:05:50;4.27;;;3.20;;
12474;SDS011;6302;42.624;23.334;2023-04-25T09:08:17;3.83;;;2.63;;
12474;SDS011;6302;42.624;23.334;2023-04-25T09:10:44;3.07;;;2.87;;
12474;SDS011;6302;42.624;23.334;2023-04-25T09:13:12;3.80;;;3.50;;
12474;SDS011;6302;42.624;23.334;2023-04-25T09:15:46;4.03;;;3.73;;
12474;SDS011;6302;42.624;23.334;2023-04-25T09:18:21;5.57;;;5.00;;
12474;SDS011;6302;42.624;23.334;2023-04-25T09:20:51;7.60;;;4.67;;
12474;SDS011;6302;42.624;23.334;2023-04-25T09:23:18;5.57;;;4.47;;
12474;SDS011;6302;42.624;23.334;2023-04-25T09:25:46;4.63;;;4.17;;
12474;SDS011;6302;42.624;23.334;2023-04-25T09:28:14;5.20;;;4.70;;
12474;SDS011;6302;42.624;23.334;2023-04-25T09:30:41;5.60;;;5.07;;
12474;SDS011;6302;42.624;23.334;2023-04-25T09:33:09;7.07;;;5.20;;
12474;SDS011;6302;42.624;23.334;2023-04-25T09:35:38;7.40;;;4.83;;
12474;SDS011;6302;42.624;23.334;2023-04-25T09:38:11;7.17;;;5.03;;
12474;SDS011;6302;42.624;23.334;2023-04-25T09:40:43;8.47;;;5.47;;
12474;SDS011;6302;42.624;23.334;2023-04-25T09:43:18;5.47;;;4.73;;
12474;SDS011;6302;42.624;23.334;2023-04-25T09:45:46;5.13;;;4.10;;
12474;SDS011;6302;42.624;23.334;2023-04-25T09:48:16;4.33;;;3.93;;
12474;SDS011;6302;42.624;23.334;2023-04-25T09:50:44;4.53;;;4.23;;
12474;SDS011;6302;42.624;23.334;2023-04-25T09:53:13;5.53;;;5.03;;
12474;SDS011;6302;42.624;23.334;2023-04-25T09:55:40;5.87;;;4.83;;
12474;SDS011;6302;42.624;23.334;2023-04-25T09:58:09;5.10;;;3.67;;
12474;SDS011;6302;42.624;23.334;2023-04-25T10:00:37;5.03;;;3.63;;
12474;SDS011;6302;42.624;23.334;2023-04-25T10:03:06;9.33;;;6.23;;
12474;SDS011;6302;42.624;23.334;2023-04-25T10:05:33;4.67;;;3.80;;
12474;SDS011;6302;42.624;23.334;2023-04-25T10:08:02;3.00;;;2.70;;
12474;SDS011;6302;42.624;23.334;2023-04-25T10:10:31;2.50;;;2.30;;
12474;SDS011;6302;42.624;23.334;2023-04-25T10:13:02;2.57;;;2.37;;
12474;SDS011;6302;42.624;23.334;2023-04-25T10:15:30;5.00;;;2.70;;
12474;SDS011;6302;42.624;23.334;2023-04-25T10:17:59;1.93;;;1.63;;
12474;SDS011;6302;42.624;23.334;2023-04-25T10:20:26;1.40;;;1.30;;
12474;SDS011;6302;42.624;23.334;2023-04-25T10:22:54;1.70;;;1.57;;
12474;SDS011;6302;42.624;23.334;2023-04-25T10:25:24;1.47;;;1.37;;
12474;SDS011;6302;42.624;23.334;2023-04-25T10:27:52;1.33;;;1.23;;
12474;SDS011;6302;42.624;23.334;2023-04-25T10:30:20;1.57;;;1.00;;
12474;SDS011;6302;42.624;23.334;2023-04-25T10:32:47;1.20;;;1.10;;
12474;SDS011;6302;42.624;23.334;2023-04-25T10:35:16;4.13;;;1.27;;
12474;SDS011;6302;42.624;23.334;2023-04-25T10:37:56;2.40;;;1.33;;
12474;SDS011;6302;42.624;23.334;2023-04-25T10:40:24;2.90;;;1.20;;
12474;SDS011;6302;42.624;23.334;2023-04-25T10:42:53;1.33;;;1.10;;
12474;SDS011;6302;42.624;23.334;2023-04-25T10:45:21;1.67;;;1.10;;
12474;SDS011;6302;42.624;23.334;2023-04-25T10:47:48;1.40;;;1.30;;
12474;SDS011;6302;42.624;23.334;2023-04-25T10:50:15;1.43;;;1.17;;
12474;SDS011;6302;42.624;23.334;2023-04-25T10:52:42;1.00;;;1.00;;
12474;SDS011;6302;42.624;23.334;2023-04-25T10:55:09;1.10;;;1.10;;
12474;SDS011;6302;42.624;23.334;2023-04-25T10:57:37;1.63;;;1.03;;
12474;SDS011;6302;42.624;23.334;2023-04-25T11:00:08;1.07;;;0.97;;
12474;SDS011;6302;42.624;23.334;2023-04-25T11:02:38;1.37;;;1.20;;
12474;SDS011;6302;42.624;23.334;2023-04-25T11:05:08;1.43;;;1.00;;
12474;SDS011;6302;42.624;23.334;2023-04-25T11:07:37;1.30;;;1.20;;
12474;SDS011;6302;42.624;23.334;2023-04-25T11:10:10;1.67;;;1.13;;
12474;SDS011;6302;42.624;23.334;2023-04-25T11:12:36;2.33;;;1.13;;
12474;SDS011;6302;42.624;23.334;2023-04-25T11:15:04;1.57;;;1.27;;
12474;SDS011;6302;42.624;23.334;2023-04-25T11:17:34;1.30;;;1.20;;
12474;SDS011;6302;42.624;23.334;2023-04-25T11:20:00;1.80;;;1.10;;
12474;SDS011;6302;42.624;23.334;2023-04-25T11:22:31;1.30;;;1.20;;
12474;SDS011;6302;42.624;23.334;2023-04-25T11:24:58;1.27;;;1.17;;
12474;SDS011;6302;42.624;23.334;2023-04-25T11:27:31;1.33;;;1.23;;
12474;SDS011;6302;42.624;23.334;2023-04-25T11:29:58;1.57;;;1.20;;
12474;SDS011;6302;42.624;23.334;2023-04-25T11:32:24;1.20;;;1.10;;
12474;SDS011;6302;42.624;23.334;2023-04-25T11:34:52;1.50;;;1.40;;
12474;SDS011;6302;42.624;23.334;2023-04-25T11:37:19;1.60;;;1.13;;
12474;SDS011;6302;42.624;23.334;2023-04-25T11:39:46;1.67;;;1.40;;
12474;SDS011;6302;42.624;23.334;2023-04-25T11:42:13;1.63;;;1.37;;
12474;SDS011;6302;42.624;23.334;2023-04-25T11:44:40;1.40;;;1.30;;
12474;SDS011;6302;42.624;23.334;2023-04-25T11:47:07;3.33;;;2.07;;
12474;SDS011;6302;42.624;23.334;2023-04-25T11:49:34;1.43;;;1.20;;
12474;SDS011;6302;42.624;23.334;2023-04-25T11:52:03;1.47;;;1.20;;
12474;SDS011;6302;42.624;23.334;2023-04-25T11:54:34;1.40;;;1.20;;
12474;SDS011;6302;42.624;23.334;2023-04-25T11:57:01;1.40;;;1.30;;
12474;SDS011;6302;42.624;23.334;2023-04-25T11:59:29;2.47;;;1.80;;
12474;SDS011;6302;42.624;23.334;2023-04-25T12:01:56;4.33;;;1.80;;
12474;SDS011;6302;42.624;23.334;2023-04-25T12:04:24;4.03;;;1.60;;
12474;SDS011;6302;42.624;23.334;2023-04-25T12:06:52;1.77;;;1.40;;
12474;SDS011;6302;42.624;23.334;2023-04-25T12:09:21;1.80;;;1.70;;
12474;SDS011;6302;42.624;23.334;2023-04-25T12:11:54;3.87;;;2.00;;
12474;SDS011;6302;42.624;23.334;2023-04-25T12:14:23;2.00;;;1.80;;
12474;SDS011;6302;42.624;23.334;2023-04-25T12:16:52;2.07;;;1.87;;
12474;SDS011;6302;42.624;23.334;2023-04-25T12:19:22;2.10;;;1.50;;
12474;SDS011;6302;42.624;23.334;2023-04-25T12:21:50;1.40;;;1.30;;
12474;SDS011;6302;42.624;23.334;2023-04-25T12:24:17;1.23;;;1.20;;
12474;SDS011;6302;42.624;23.334;2023-04-25T12:26:51;1.30;;;1.20;;
12474;SDS011;6302;42.624;23.334;2023-04-25T12:29:20;1.00;;;1.00;;
12474;SDS011;6302;42.624;23.334;2023-04-25T12:31:49;1.07;;;1.00;;
12474;SDS011;6302;42.624;23.334;2023-04-25T12:34:17;1.03;;;1.03;;
12474;SDS011;6302;42.624;23.334;2023-04-25T12:36:44;1.20;;;1.10;;
12474;SDS011;6302;42.624;23.334;2023-04-25T12:39:15;1.27;;;1.10;;
12474;SDS011;6302;42.624;23.334;2023-04-25T12:41:43;1.47;;;1.20;;
12474;SDS011;6302;42.624;23.334;2023-04-25T12:44:12;1.27;;;1.17;;
12474;SDS011;6302;42.624;23.334;2023-04-25T12:46:39;1.00;;;1.00;;
12474;SDS011;6302;42.624;23.334;2023-04-25T12:49:07;1.70;;;1.17;;
12474;SDS011;6302;42.624;23.334;2023-04-25T12:51:34;1.30;;;1.20;;
12474;SDS011;6302;42.624;23.334;2023-04-25T12:54:02;3.13;;;1.30;;
12474;SDS011;6302;42.624;23.334;2023-04-25T12:56:31;1.23;;;1.10;;
12474;SDS011;6302;42.624;23.334;2023-04-25T12:58:58;1.40;;;1.30;;
12474;SDS011;6302;42.624;23.334;2023-04-25T13:01:26;3.83;;;1.40;;
12474;SDS011;6302;42.624;23.334;2023-04-25T13:03:53;1.50;;;1.40;;
12474;SDS011;6302;42.624;23.334;2023-04-25T13:06:22;1.03;;;1.00;;
12474;SDS011;6302;42.624;23.334;2023-04-25T13:08:49;1.10;;;1.10;;
12474;SDS011;6302;42.624;23.334;2023-04-25T13:11:16;1.40;;;1.30;;
12474;SDS011;6302;42.624;23.334;2023-04-25T13:13:43;1.23;;;1.03;;
12474;SDS011;6302;42.624;23.334;2023-04-25T13:16:10;1.20;;;1.10;;
12474;SDS011;6302;42.624;23.334;2023-04-25T13:18:40;1.73;;;1.20;;
12474;SDS011;6302;42.624;23.334;2023-04-25T13:21:07;2.13;;;1.60;;
12474;SDS011;6302;42.624;23.334;2023-04-25T13:23:36;1.73;;;1.50;;
12474;SDS011;6302;42.624;23.334;2023-04-25T13:26:03;3.10;;;1.43;;
12474;SDS011;6302;42.624;23.334;2023-04-25T13:28:30;1.60;;;1.50;;
12474;SDS011;6302;42.624;23.334;2023-04-25T13:30:57;1.80;;;1.70;;
12474;SDS011;6302;42.624;23.334;2023-04-25T13:33:24;2.17;;;1.73;;
12474;SDS011;6302;42.624;23.334;2023-04-25T13:35:53;2.60;;;1.80;;
12474;SDS011;6302;42.624;23.334;2023-04-25T13:38:21;2.90;;;2.03;;
12474;SDS011;6302;42.624;23.334;2023-04-25T13:40:48;2.10;;;1.90;;
12474;SDS011;6302;42.624;23.334;2023-04-25T13:43:17;2.63;;;1.50;;
12474;SDS011;6302;42.624;23.334;2023-04-25T13:45:44;2.17;;;1.80;;
12474;SDS011;6302;42.624;23.334;2023-04-25T13:48:11;1.97;;;1.77;;
12474;SDS011;6302;42.624;23.334;2023-04-25T13:50:38;3.17;;;1.50;;
12474;SDS011;6302;42.624;23.334;2023-04-25T13:53:06;1.70;;;1.60;;
12474;SDS011;6302;42.624;23.334;2023-04-25T13:55:33;1.63;;;1.53;;
12474;SDS011;6302;42.624;23.334;2023-04-25T13:58:00;1.70;;;1.60;;
12474;SDS011;6302;42.624;23.334;2023-04-25T14:00:32;1.90;;;1.80;;
12474;SDS011;6302;42.624;23.334;2023-04-25T14:03:00;4.07;;;2.07;;
12474;SDS011;6302;42.624;23.334;2023-04-25T14:05:29;5.60;;;2.63;;
12474;SDS011;6302;42.624;23.334;2023-04-25T14:07:56;2.50;;;2.00;;
12474;SDS011;6302;42.624;23.334;2023-04-25T14:10:24;2.00;;;1.30;;
12474;SDS011;6302;42.624;23.334;2023-04-25T14:12:51;1.13;;;1.13;;
12474;SDS011;6302;42.624;23.334;2023-04-25T14:15:18;1.20;;;1.10;;
12474;SDS011;6302;42.624;23.334;2023-04-25T14:17:45;1.10;;;1.00;;
12474;SDS011;6302;42.624;23.334;2023-04-25T14:20:13;0.90;;;0.90;;
12474;SDS011;6302;42.624;23.334;2023-04-25T14:22:40;0.93;;;0.93;;
12474;SDS011;6302;42.624;23.334;2023-04-25T14:25:08;1.10;;;1.00;;
12474;SDS011;6302;42.624;23.334;2023-04-25T14:27:37;1.70;;;1.10;;
12474;SDS011;6302;42.624;23.334;2023-04-25T14:30:04;1.57;;;1.40;;
12474;SDS011;6302;42.624;23.334;2023-04-25T14:32:34;1.67;;;1.53;;
12474;SDS011;6302;42.624;23.334;2023-04-25T14:35:01;3.97;;;1.87;;
12474;SDS011;6302;42.624;23.334;2023-04-25T14:37:27;4.63;;;1.93;;
12474;SDS011;6302;42.624;23.334;2023-04-25T14:39:54;6.67;;;2.87;;
12474;SDS011;6302;42.624;23.334;2023-04-25T14:42:23;4.07;;;2.27;;